Time;durP1;ratioP1;P1;durP2;ratioP2;P2;SDS_P1;SDS_P2;PMS_P1;PMS_P2;Temp;Humidity;BMP_temperature;BMP_pressure;BME280_temperature;BME280_humidity;BME280_pressure;Samples;Min_cycle;Max_cycle;Signal;HPM_P1;HPM_P2
2023/04/09 00:01:24;;;;;;;8.87;8.23;;;;;;;;;;6215621;23;20375;-69
2023/04/09 00:03:50;;;;;;;9.80;8.40;;;;;;;;;;6215989;23;20721;-69
2023/04/09 00:06:16;;;;;;;10.87;9.90;;;;;;;;;;6216029;23;20417;-66
2023/04/09 00:08:42;;;;;;;9.07;8.40;;;;;;;;;;6215356;23;20390;-66
2023/04/09 00:11:08;;;;;;;10.73;8.73;;;;;;;;;;6215243;23;20375;-73
2023/04/09 00:13:34;;;;;;;8.73;8.13;;;;;;;;;;6215210;23;20395;-70
2023/04/09 00:19:03;;;;;;;14.10;9.47;;;;;;;;;;6215728;23;20456;-66
2023/04/09 00:21:29;;;;;;;11.70;8.63;;;;;;;;;;6215611;23;20462;-67
2023/04/09 00:23:55;;;;;;;9.90;8.90;;;;;;;;;;6215626;23;20367;-67
2023/04/09 00:26:21;;;;;;;10.43;9.40;;;;;;;;;;6215209;23;20852;-70
2023/04/09 00:28:47;;;;;;;9.57;8.73;;;;;;;;;;6215520;23;20730;-67
2023/04/09 00:31:13;;;;;;;11.63;9.77;;;;;;;;;;6215466;23;20389;-68
2023/04/09 00:33:40;;;;;;;8.63;7.80;;;;;;;;;;6213691;23;20458;-67
2023/04/09 00:39:09;;;;;;;16.73;10.57;;;;;;;;;;6214993;23;20496;-68
2023/04/09 00:41:35;;;;;;;8.63;7.50;;;;;;;;;;6215526;23;20375;-69
2023/04/09 00:44:01;;;;;;;9.43;8.43;;;;;;;;;;6216173;23;20383;-69
2023/04/09 00:46:27;;;;;;;10.10;8.57;;;;;;;;;;6217223;23;20470;-70
2023/04/09 00:48:53;;;;;;;9.40;8.30;;;;;;;;;;6216988;23;20803;-72
2023/04/09 00:51:19;;;;;;;8.53;7.87;;;;;;;;;;6217284;23;20421;-72
2023/04/09 00:53:47;;;;;;;9.60;8.60;;;;;;;;;;6216999;23;20723;-69
2023/04/09 00:56:13;;;;;;;9.40;8.53;;;;;;;;;;6216836;23;20375;-71
2023/04/09 00:58:40;;;;;;;8.70;7.93;;;;;;;;;;6216863;23;20760;-70
2023/04/09 01:01:06;;;;;;;9.57;8.63;;;;;;;;;;6217162;23;20371;-69
2023/04/09 01:03:32;;;;;;;9.97;8.37;;;;;;;;;;6216863;23;20466;-68
2023/04/09 01:06:10;;;;;;;8.77;8.17;;;;;;;;;;6217170;23;20517;-66
2023/04/09 01:08:45;;;;;;;10.57;7.60;;;;;;;;;;6217161;23;20429;-72
2023/04/09 01:11:27;;;;;;;7.90;7.20;;;;;;;;;;6217082;23;20421;-66
2023/04/09 01:14:12;;;;;;;9.40;7.90;;;;;;;;;;6216822;23;20372;-67
2023/04/09 01:16:40;;;;;;;8.67;7.87;;;;;;;;;;6216695;23;20837;-68
2023/04/09 01:19:16;;;;;;;8.43;7.70;;;;;;;;;;6216978;23;20430;-67
2023/04/09 01:21:42;;;;;;;8.93;7.90;;;;;;;;;;6217583;23;20367;-70
2023/04/09 01:24:41;;;;;;;8.67;7.97;;;;;;;;;;6216687;23;20376;-66
2023/04/09 01:27:08;;;;;;;9.23;7.67;;;;;;;;;;6217112;23;20410;-68
2023/04/09 01:29:41;;;;;;;8.57;7.80;;;;;;;;;;6216616;23;20382;-68
2023/04/09 01:32:07;;;;;;;8.57;7.77;;;;;;;;;;6216936;23;20363;-69
2023/04/09 01:34:33;;;;;;;12.40;8.53;;;;;;;;;;6216544;23;20751;-69
2023/04/09 01:37:01;;;;;;;8.03;7.23;;;;;;;;;;6216862;23;20928;-66
2023/04/09 01:39:28;;;;;;;12.17;8.03;;;;;;;;;;6216005;23;21015;-69
2023/04/09 01:41:57;;;;;;;7.37;6.83;;;;;;;;;;6216502;23;20371;-70
2023/04/09 01:44:25;;;;;;;11.43;7.00;;;;;;;;;;6216405;23;20888;-67
2023/04/09 01:46:51;;;;;;;13.67;7.07;;;;;;;;;;6216787;23;20375;-71
2023/04/09 01:49:17;;;;;;;7.70;6.90;;;;;;;;;;6216712;23;20380;-67
2023/04/09 01:51:44;;;;;;;7.07;6.50;;;;;;;;;;6216359;23;20374;-69
2023/04/09 01:54:10;;;;;;;9.97;6.43;;;;;;;;;;6214673;23;20407;-68
2023/04/09 01:56:40;;;;;;;7.60;7.10;;;;;;;;;;6216387;23;20868;-68
2023/04/09 01:59:05;;;;;;;7.63;6.90;;;;;;;;;;6216165;23;20517;-67
2023/04/09 02:01:34;;;;;;;7.57;6.60;;;;;;;;;;6216616;23;20395;-67
2023/04/09 02:04:04;;;;;;;7.70;7.10;;;;;;;;;;6216305;23;20379;-70
2023/04/09 02:06:33;;;;;;;6.80;6.40;;;;;;;;;;6216630;23;20371;-71
2023/04/09 02:09:00;;;;;;;6.60;6.20;;;;;;;;;;6216696;23;20453;-70
2023/04/09 02:11:28;;;;;;;6.60;6.10;;;;;;;;;;6216520;23;20379;-70
2023/04/09 02:13:55;;;;;;;5.20;4.90;;;;;;;;;;6216551;23;20379;-70
2023/04/09 02:16:21;;;;;;;5.07;4.77;;;;;;;;;;6216223;23;20367;-68
2023/04/09 02:18:47;;;;;;;5.17;4.77;;;;;;;;;;6216421;23;20532;-66
2023/04/09 02:21:13;;;;;;;4.50;4.40;;;;;;;;;;6216364;23;20367;-69
2023/04/09 02:23:39;;;;;;;4.87;4.63;;;;;;;;;;6216473;23;20382;-70
2023/04/09 02:26:05;;;;;;;4.33;4.17;;;;;;;;;;6216223;23;20856;-68
2023/04/09 02:28:31;;;;;;;4.40;4.10;;;;;;;;;;6216046;23;20382;-67
2023/04/09 02:30:57;;;;;;;5.27;4.93;;;;;;;;;;6216312;23;20375;-67
2023/04/09 02:33:23;;;;;;;6.40;3.90;;;;;;;;;;6216267;23;20375;-66
2023/04/09 02:35:49;;;;;;;6.00;3.80;;;;;;;;;;6216026;23;20395;-66
2023/04/09 02:38:15;;;;;;;4.20;3.93;;;;;;;;;;6214253;23;20514;-66
2023/04/09 02:40:41;;;;;;;4.20;3.90;;;;;;;;;;6215555;23;20435;-69
2023/04/09 02:43:08;;;;;;;5.67;4.47;;;;;;;;;;6216203;23;20437;-67
2023/04/09 02:45:34;;;;;;;6.50;4.60;;;;;;;;;;6216282;23;20376;-68
2023/04/09 02:48:00;;;;;;;5.20;4.80;;;;;;;;;;6216208;23;20375;-68
2023/04/09 02:50:26;;;;;;;5.33;4.93;;;;;;;;;;6215740;23;20415;-67
2023/04/09 02:52:52;;;;;;;3.97;3.87;;;;;;;;;;6214337;23;20394;-67
2023/04/09 02:58:21;;;;;;;5.23;4.50;;;;;;;;;;6215725;23;20416;-73
2023/04/09 03:00:47;;;;;;;5.90;5.50;;;;;;;;;;6215651;23;20383;-68
2023/04/09 03:03:13;;;;;;;4.70;4.50;;;;;;;;;;6215791;23;20382;-69
2023/04/09 03:05:39;;;;;;;7.77;6.47;;;;;;;;;;6215995;23;20533;-73
2023/04/09 03:08:05;;;;;;;7.20;6.50;;;;;;;;;;6215529;23;20854;-69
2023/04/09 03:10:31;;;;;;;3.83;3.63;;;;;;;;;;6215695;23;20386;-69
2023/04/09 03:12:57;;;;;;;3.00;2.90;;;;;;;;;;6215725;23;20711;-70
2023/04/09 03:15:23;;;;;;;3.40;3.30;;;;;;;;;;6215572;23;20466;-69
2023/04/09 03:17:49;;;;;;;4.67;4.37;;;;;;;;;;6215612;23;20414;-70
2023/04/09 03:20:15;;;;;;;3.27;3.17;;;;;;;;;;6215905;23;20386;-68
2023/04/09 03:22:41;;;;;;;3.03;2.93;;;;;;;;;;6215846;23;20644;-69
2023/04/09 03:25:07;;;;;;;3.77;3.60;;;;;;;;;;6216487;23;20386;-70
2023/04/09 03:27:33;;;;;;;4.30;4.10;;;;;;;;;;6215619;23;20378;-73
2023/04/09 03:30:00;;;;;;;3.17;3.17;;;;;;;;;;6215909;23;20744;-72
2023/04/09 03:32:26;;;;;;;2.60;2.60;;;;;;;;;;6216607;23;20849;-67
2023/04/09 03:34:52;;;;;;;2.73;2.63;;;;;;;;;;6214019;23;20385;-66
2023/04/09 03:37:18;;;;;;;3.67;3.47;;;;;;;;;;6215919;23;20420;-67
2023/04/09 03:39:44;;;;;;;6.33;4.47;;;;;;;;;;6215558;23;20788;-65
2023/04/09 03:42:10;;;;;;;5.47;4.00;;;;;;;;;;6215792;23;20375;-66
2023/04/09 03:44:36;;;;;;;3.57;3.47;;;;;;;;;;6215468;23;20383;-67
2023/04/09 03:47:02;;;;;;;3.93;3.73;;;;;;;;;;6215393;23;20375;-66
2023/04/09 03:49:28;;;;;;;3.43;3.27;;;;;;;;;;6215544;23;20375;-67
2023/04/09 03:51:54;;;;;;;3.70;3.60;;;;;;;;;;6215805;23;20378;-66
2023/04/09 03:54:20;;;;;;;4.97;4.57;;;;;;;;;;6215906;23;20386;-67
2023/04/09 03:56:46;;;;;;;5.97;4.37;;;;;;;;;;6215765;23;20782;-68
2023/04/09 03:59:12;;;;;;;5.17;4.27;;;;;;;;;;6215681;23;20509;-66
2023/04/09 04:01:38;;;;;;;7.10;3.90;;;;;;;;;;6215393;23;20367;-68
2023/04/09 04:04:04;;;;;;;3.80;3.60;;;;;;;;;;6215871;23;20367;-68
2023/04/09 04:06:32;;;;;;;4.30;4.10;;;;;;;;;;6215760;23;20656;-66
2023/04/09 04:08:58;;;;;;;4.60;4.30;;;;;;;;;;6215680;23;20382;-72
2023/04/09 04:11:24;;;;;;;4.20;3.90;;;;;;;;;;6215288;23;20363;-68
2023/04/09 04:13:50;;;;;;;4.30;4.10;;;;;;;;;;6215414;23;20379;-69
2023/04/09 04:19:19;;;;;;;4.40;4.03;;;;;;;;;;6217259;23;20529;-69
2023/04/09 04:21:45;;;;;;;4.17;3.87;;;;;;;;;;6217715;23;20387;-71
2023/04/09 04:24:11;;;;;;;4.23;3.83;;;;;;;;;;6217417;23;20841;-70
2023/04/09 04:26:39;;;;;;;4.80;4.53;;;;;;;;;;6217495;23;20790;-71
2023/04/09 04:29:05;;;;;;;4.70;4.40;;;;;;;;;;6217604;23;20707;-65
2023/04/09 04:31:31;;;;;;;4.10;4.00;;;;;;;;;;6217547;23;20390;-67
2023/04/09 04:33:56;;;;;;;4.40;4.23;;;;;;;;;;6217274;23;20441;-66
2023/04/09 04:36:22;;;;;;;4.47;4.20;;;;;;;;;;6217448;23;20383;-66
2023/04/09 04:38:48;;;;;;;3.73;3.60;;;;;;;;;;6216912;23;20999;-66
2023/04/09 04:41:14;;;;;;;4.37;3.90;;;;;;;;;;6217516;23;20682;-67
2023/04/09 04:43:40;;;;;;;4.50;4.30;;;;;;;;;;6217148;23;20371;-68
2023/04/09 04:46:06;;;;;;;4.00;3.80;;;;;;;;;;6217060;23;20381;-67
2023/04/09 04:48:32;;;;;;;4.80;4.40;;;;;;;;;;6217447;23;20390;-66
2023/04/09 04:50:59;;;;;;;4.50;4.20;;;;;;;;;;6217287;23;20913;-65
2023/04/09 04:53:25;;;;;;;5.50;4.47;;;;;;;;;;6217427;23;20860;-71
2023/04/09 04:55:51;;;;;;;4.40;4.20;;;;;;;;;;6217975;23;20443;-71
2023/04/09 04:58:18;;;;;;;3.77;3.60;;;;;;;;;;6217476;23;20426;-64
2023/04/09 05:00:44;;;;;;;4.57;4.10;;;;;;;;;;6216819;23;20395;-70
2023/04/09 05:03:10;;;;;;;4.40;4.20;;;;;;;;;;6216994;23;20371;-74
2023/04/09 05:05:36;;;;;;;4.30;4.00;;;;;;;;;;6216958;23;20440;-72
2023/04/09 05:08:02;;;;;;;4.30;3.90;;;;;;;;;;6217225;23;20399;-68
2023/04/09 05:10:27;;;;;;;3.90;3.80;;;;;;;;;;6217636;23;20413;-66
2023/04/09 05:12:54;;;;;;;4.00;3.83;;;;;;;;;;6216584;23;20454;-67
2023/04/09 05:15:20;;;;;;;4.73;4.53;;;;;;;;;;6216812;23;20701;-66
2023/04/09 05:17:45;;;;;;;4.10;3.90;;;;;;;;;;6216999;23;20371;-65
2023/04/09 05:20:12;;;;;;;4.37;4.17;;;;;;;;;;6216690;23;20449;-65
2023/04/09 05:22:38;;;;;;;7.80;7.10;;;;;;;;;;6217000;23;20379;-66
2023/04/09 05:25:04;;;;;;;5.90;5.30;;;;;;;;;;6216986;23;20908;-65
2023/04/09 05:27:30;;;;;;;5.93;4.90;;;;;;;;;;6216709;23;20372;-66
2023/04/09 05:29:56;;;;;;;5.53;5.10;;;;;;;;;;6216181;23;20710;-70
2023/04/09 05:32:22;;;;;;;5.60;5.23;;;;;;;;;;6190366;23;20375;-65
2023/04/09 05:34:48;;;;;;;5.77;5.47;;;;;;;;;;6216647;23;20380;-65
2023/04/09 05:37:14;;;;;;;6.10;5.60;;;;;;;;;;6216659;23;20402;-65
2023/04/09 05:39:40;;;;;;;6.40;5.90;;;;;;;;;;6216485;23;20496;-66
2023/04/09 05:42:06;;;;;;;5.20;5.00;;;;;;;;;;6216401;23;20367;-74
2023/04/09 05:44:32;;;;;;;4.83;4.53;;;;;;;;;;6216563;23;20375;-65
2023/04/09 05:46:58;;;;;;;4.90;4.67;;;;;;;;;;6216727;23;20379;-66
2023/04/09 05:49:24;;;;;;;4.20;4.00;;;;;;;;;;6216543;23;20371;-66
2023/04/09 05:51:50;;;;;;;4.30;4.07;;;;;;;;;;6216265;23;20876;-65
2023/04/09 05:54:16;;;;;;;5.57;5.27;;;;;;;;;;6216419;23;20724;-66
2023/04/09 05:56:42;;;;;;;5.60;5.03;;;;;;;;;;6216503;23;20437;-66
2023/04/09 05:59:08;;;;;;;4.13;3.97;;;;;;;;;;6216220;23;20762;-66
2023/04/09 06:01:35;;;;;;;7.07;5.37;;;;;;;;;;6216067;23;20368;-65
2023/04/09 06:04:01;;;;;;;4.87;4.57;;;;;;;;;;6216201;23;20381;-65
2023/04/09 06:06:26;;;;;;;5.07;4.77;;;;;;;;;;6216129;23;20462;-69
2023/04/09 06:08:52;;;;;;;5.37;4.97;;;;;;;;;;6217474;23;20375;-65
2023/04/09 06:11:20;;;;;;;5.10;4.90;;;;;;;;;;6216378;23;20375;-65
2023/04/09 06:13:46;;;;;;;5.90;5.50;;;;;;;;;;6216514;23;20437;-65
2023/04/09 06:16:12;;;;;;;5.87;5.37;;;;;;;;;;6216325;23;20732;-65
2023/04/09 06:18:38;;;;;;;5.50;5.23;;;;;;;;;;6216092;23;20450;-66
2023/04/09 06:21:04;;;;;;;4.90;4.70;;;;;;;;;;6216303;23;20383;-65
2023/04/09 06:23:31;;;;;;;5.83;5.40;;;;;;;;;;6216667;23;20371;-65
2023/04/09 06:25:57;;;;;;;4.97;4.67;;;;;;;;;;6216091;23;20371;-68
2023/04/09 06:28:23;;;;;;;5.13;4.83;;;;;;;;;;6215988;23;20367;-67
2023/04/09 06:30:49;;;;;;;4.43;4.33;;;;;;;;;;6216206;23;20379;-67
2023/04/09 06:33:15;;;;;;;5.10;4.80;;;;;;;;;;6215772;23;20371;-65
2023/04/09 06:35:41;;;;;;;3.80;3.70;;;;;;;;;;6215962;23;20462;-65
2023/04/09 06:38:09;;;;;;;4.87;4.60;;;;;;;;;;6215895;23;20430;-66
2023/04/09 06:40:36;;;;;;;5.23;4.93;;;;;;;;;;6215720;23;20422;-65
2023/04/09 06:43:02;;;;;;;5.37;5.07;;;;;;;;;;6215782;23;20386;-66
2023/04/09 06:45:30;;;;;;;5.30;5.00;;;;;;;;;;6216194;23;20367;-69
2023/04/09 06:47:57;;;;;;;4.57;4.37;;;;;;;;;;6215772;23;20445;-66
2023/04/09 06:50:22;;;;;;;4.60;4.40;;;;;;;;;;6215695;23;20375;-68
2023/04/09 06:52:48;;;;;;;5.20;4.90;;;;;;;;;;6215759;23;20375;-71
2023/04/09 06:55:15;;;;;;;4.10;3.90;;;;;;;;;;6215819;23;20473;-65
2023/04/09 06:57:41;;;;;;;4.70;4.50;;;;;;;;;;6215520;23;20383;-65
2023/04/09 07:00:08;;;;;;;4.60;4.40;;;;;;;;;;6215980;23;20384;-65
2023/04/09 07:02:34;;;;;;;5.27;5.00;;;;;;;;;;6215987;23;20467;-65
2023/04/09 07:05:00;;;;;;;4.13;4.03;;;;;;;;;;6216600;23;20392;-65
2023/04/09 07:07:26;;;;;;;5.73;5.23;;;;;;;;;;6214092;23;20729;-67
2023/04/09 07:09:53;;;;;;;5.37;4.97;;;;;;;;;;6215798;23;20434;-65
2023/04/09 07:12:28;;;;;;;5.23;4.90;;;;;;;;;;6215751;23;20461;-65
2023/04/09 07:14:58;;;;;;;5.80;5.27;;;;;;;;;;6215703;23;20756;-65
2023/04/09 07:17:24;;;;;;;8.90;7.37;;;;;;;;;;6215904;23;20429;-67
2023/04/09 07:19:50;;;;;;;4.97;4.67;;;;;;;;;;6215869;23;20430;-65
2023/04/09 07:22:16;;;;;;;4.90;4.70;;;;;;;;;;6215523;23;20430;-67
2023/04/09 07:24:43;;;;;;;6.00;5.50;;;;;;;;;;6213893;23;20403;-64
2023/04/09 07:27:09;;;;;;;5.07;4.77;;;;;;;;;;6213810;23;20876;-64
2023/04/09 07:29:35;;;;;;;7.50;6.87;;;;;;;;;;6216476;23;20391;-65
2023/04/09 07:32:02;;;;;;;6.10;5.53;;;;;;;;;;6215482;23;20371;-64
2023/04/09 07:34:28;;;;;;;4.93;4.63;;;;;;;;;;6215997;23;20441;-65
2023/04/09 07:36:54;;;;;;;4.70;4.50;;;;;;;;;;6215592;23;20751;-64
2023/04/09 07:39:21;;;;;;;4.53;4.33;;;;;;;;;;6215168;23;20458;-64
2023/04/09 07:41:47;;;;;;;4.73;4.47;;;;;;;;;;6215499;23;20379;-64
2023/04/09 07:44:13;;;;;;;4.20;4.00;;;;;;;;;;6215565;23;20383;-64
2023/04/09 07:46:40;;;;;;;4.50;4.20;;;;;;;;;;6215552;23;20911;-64
2023/04/09 07:49:06;;;;;;;4.27;4.07;;;;;;;;;;6215874;23;20841;-64
2023/04/09 07:51:32;;;;;;;4.10;3.90;;;;;;;;;;6215308;23;20441;-64
2023/04/09 07:53:58;;;;;;;2.07;2.07;;;;;;;;;;6215025;23;20387;-65
2023/04/09 07:56:24;;;;;;;4.40;4.20;;;;;;;;;;6215711;23;20376;-64
2023/04/09 07:58:50;;;;;;;3.60;3.40;;;;;;;;;;6215382;23;20737;-68
2023/04/09 08:01:16;;;;;;;3.17;3.07;;;;;;;;;;6215683;23;20378;-65
2023/04/09 08:03:42;;;;;;;3.50;3.40;;;;;;;;;;6215459;23;20379;-64
2023/04/09 08:06:08;;;;;;;3.10;3.00;;;;;;;;;;6216079;23;20410;-64
2023/04/09 08:08:34;;;;;;;2.60;2.50;;;;;;;;;;6215468;23;20744;-66
2023/04/09 08:11:00;;;;;;;3.40;3.27;;;;;;;;;;6215687;23;20375;-68
2023/04/09 08:13:26;;;;;;;3.30;3.20;;;;;;;;;;6215380;23;20864;-67
2023/04/09 08:15:52;;;;;;;5.40;3.87;;;;;;;;;;6215424;23;20706;-65
2023/04/09 08:18:19;;;;;;;3.33;3.23;;;;;;;;;;6215634;23;20423;-69
2023/04/09 08:20:45;;;;;;;3.50;3.40;;;;;;;;;;6215082;23;20429;-65
2023/04/09 08:23:11;;;;;;;2.53;2.43;;;;;;;;;;6215339;23;20375;-66
2023/04/09 08:25:37;;;;;;;5.00;3.37;;;;;;;;;;6215355;23;20379;-66
2023/04/09 08:28:03;;;;;;;2.80;2.70;;;;;;;;;;6215575;23;20680;-66
2023/04/09 08:30:29;;;;;;;3.00;2.90;;;;;;;;;;6215574;23;20379;-67
2023/04/09 08:32:55;;;;;;;1.87;1.77;;;;;;;;;;6215548;23;20425;-67
2023/04/09 08:35:21;;;;;;;2.80;2.80;;;;;;;;;;6215255;23;20434;-67
2023/04/09 08:37:47;;;;;;;2.60;2.50;;;;;;;;;;6216131;23;20382;-66
2023/04/09 08:40:13;;;;;;;2.40;2.40;;;;;;;;;;6214957;23;20430;-66
2023/04/09 08:42:44;;;;;;;2.10;2.00;;;;;;;;;;6215232;23;20390;-67
2023/04/09 08:45:11;;;;;;;1.87;1.87;;;;;;;;;;6215648;23;20352;-67
2023/04/09 08:47:37;;;;;;;2.40;2.20;;;;;;;;;;6213752;23;20445;-66
2023/04/09 08:50:04;;;;;;;1.50;1.40;;;;;;;;;;6215773;23;20382;-66
2023/04/09 08:52:34;;;;;;;1.67;1.67;;;;;;;;;;6215571;23;20410;-66
2023/04/09 08:55:00;;;;;;;2.30;2.20;;;;;;;;;;6215477;23;20382;-65
2023/04/09 08:57:26;;;;;;;2.30;2.30;;;;;;;;;;6215349;23;20715;-65
2023/04/09 08:59:52;;;;;;;2.17;2.07;;;;;;;;;;6215319;23;20435;-65
2023/04/09 09:02:18;;;;;;;1.90;1.90;;;;;;;;;;6214896;23;20376;-65
2023/04/09 09:04:45;;;;;;;2.43;1.70;;;;;;;;;;6215836;23;20383;-65
2023/04/09 09:07:11;;;;;;;3.13;1.80;;;;;;;;;;6216776;23;20375;-65
2023/04/09 09:09:56;;;;;;;2.50;2.40;;;;;;;;;;6216820;23;20467;-65
2023/04/09 09:12:33;;;;;;;2.17;2.17;;;;;;;;;;6216728;23;20696;-65
2023/04/09 09:14:59;;;;;;;2.43;2.43;;;;;;;;;;6216863;23;20436;-65
2023/04/09 09:17:25;;;;;;;2.40;2.40;;;;;;;;;;6216839;23;20375;-65
2023/04/09 09:19:51;;;;;;;2.20;2.10;;;;;;;;;;6216713;23;20437;-65
2023/04/09 09:22:17;;;;;;;2.20;2.00;;;;;;;;;;6217038;23;20374;-66
2023/04/09 09:24:50;;;;;;;1.90;1.90;;;;;;;;;;6217102;23;20833;-65
2023/04/09 09:27:33;;;;;;;2.50;2.40;;;;;;;;;;6217134;23;20363;-65
2023/04/09 09:30:00;;;;;;;2.90;2.80;;;;;;;;;;6217894;23;20379;-66
2023/04/09 09:32:26;;;;;;;2.03;2.03;;;;;;;;;;6217025;23;20403;-65
2023/04/09 09:35:05;;;;;;;1.80;1.80;;;;;;;;;;6216637;23;20441;-66
2023/04/09 09:37:32;;;;;;;2.73;2.63;;;;;;;;;;6216922;23;20395;-65
2023/04/09 09:39:58;;;;;;;1.57;1.57;;;;;;;;;;6216356;23;20470;-65
2023/04/09 09:42:25;;;;;;;2.30;1.80;;;;;;;;;;6216542;23;20548;-66
2023/04/09 09:44:51;;;;;;;2.13;2.13;;;;;;;;;;6216518;23;20756;-65
2023/04/09 09:47:18;;;;;;;2.20;2.20;;;;;;;;;;6216956;23;20383;-65
2023/04/09 09:49:45;;;;;;;1.93;1.93;;;;;;;;;;6216929;23;20395;-65
2023/04/09 09:52:11;;;;;;;2.30;2.30;;;;;;;;;;6216462;23;20923;-65
2023/04/09 09:54:43;;;;;;;3.87;1.97;;;;;;;;;;6216540;23;20371;-65
2023/04/09 09:57:15;;;;;;;1.93;1.93;;;;;;;;;;6217129;23;20390;-65
2023/04/09 09:59:42;;;;;;;1.97;1.97;;;;;;;;;;6216757;23;20458;-65
2023/04/09 10:02:17;;;;;;;2.30;2.30;;;;;;;;;;6190349;23;20387;-65
2023/04/09 10:04:44;;;;;;;2.27;2.27;;;;;;;;;;6216733;23;20697;-66
2023/04/09 10:07:10;;;;;;;2.40;2.40;;;;;;;;;;6216373;23;20383;-65
2023/04/09 10:09:37;;;;;;;2.03;2.03;;;;;;;;;;6216685;23;20385;-65
2023/04/09 10:12:06;;;;;;;2.30;2.20;;;;;;;;;;6216246;23;20386;-65
2023/04/09 10:14:32;;;;;;;2.80;2.70;;;;;;;;;;6216508;23;20458;-65
2023/04/09 10:16:58;;;;;;;1.77;1.77;;;;;;;;;;6216457;23;20379;-66
2023/04/09 10:19:24;;;;;;;1.63;1.63;;;;;;;;;;6215827;23;20435;-65
2023/04/09 10:21:53;;;;;;;2.30;2.20;;;;;;;;;;6216857;23;20421;-65
2023/04/09 10:24:19;;;;;;;2.00;2.00;;;;;;;;;;6216263;23;20407;-65
2023/04/09 10:26:45;;;;;;;2.30;2.00;;;;;;;;;;6215257;23;20890;-65
2023/04/09 10:29:13;;;;;;;1.97;1.97;;;;;;;;;;6216490;23;20435;-66
2023/04/09 10:31:46;;;;;;;2.40;2.40;;;;;;;;;;6216000;23;20431;-65
2023/04/09 10:34:14;;;;;;;2.57;2.57;;;;;;;;;;6216441;23;20386;-66
2023/04/09 10:36:42;;;;;;;2.50;2.50;;;;;;;;;;6216390;23;20364;-65
2023/04/09 10:39:12;;;;;;;2.30;2.30;;;;;;;;;;6215780;23;20756;-65
2023/04/09 10:41:40;;;;;;;2.17;2.07;;;;;;;;;;6216259;23;20386;-65
2023/04/09 10:44:06;;;;;;;1.93;1.80;;;;;;;;;;6215911;23;20383;-65
2023/04/09 10:46:35;;;;;;;2.23;2.23;;;;;;;;;;6215953;23;20477;-65
2023/04/09 10:49:12;;;;;;;2.00;2.00;;;;;;;;;;6216277;23;20379;-65
2023/04/09 10:51:38;;;;;;;1.97;1.87;;;;;;;;;;6214393;23;20399;-65
2023/04/09 10:54:25;;;;;;;2.10;2.10;;;;;;;;;;6216002;23;20407;-65
2023/04/09 10:57:09;;;;;;;2.60;2.50;;;;;;;;;;6169600;23;20403;-66
2023/04/09 10:59:43;;;;;;;2.53;2.30;;;;;;;;;;6216020;23;20492;-66
2023/04/09 11:02:25;;;;;;;2.07;2.07;;;;;;;;;;6216099;23;20368;-66
2023/04/09 11:05:10;;;;;;;2.30;2.20;;;;;;;;;;6164748;23;20794;-65
2023/04/09 11:07:40;;;;;;;1.80;1.80;;;;;;;;;;6216164;23;20473;-65
2023/04/09 11:10:06;;;;;;;2.40;2.40;;;;;;;;;;6216389;23;20374;-65
2023/04/09 11:12:33;;;;;;;2.80;2.70;;;;;;;;;;6215714;23;20379;-66
2023/04/09 11:14:59;;;;;;;1.97;1.97;;;;;;;;;;6216160;23;20414;-65
2023/04/09 11:17:25;;;;;;;2.17;2.17;;;;;;;;;;6216082;23;20386;-65
2023/04/09 11:19:51;;;;;;;1.60;1.50;;;;;;;;;;6215696;23;20528;-68
2023/04/09 11:22:17;;;;;;;2.00;2.00;;;;;;;;;;6215675;23;20460;-68
2023/04/09 11:24:43;;;;;;;1.83;1.83;;;;;;;;;;6216169;23;20852;-65
2023/04/09 11:27:09;;;;;;;2.43;2.40;;;;;;;;;;6215279;23;20372;-65
2023/04/09 11:29:36;;;;;;;1.37;1.37;;;;;;;;;;6215719;23;20708;-65
2023/04/09 11:32:04;;;;;;;2.10;2.10;;;;;;;;;;6215914;23;20411;-65
2023/04/09 11:34:30;;;;;;;1.73;1.73;;;;;;;;;;6215551;23;20422;-65
2023/04/09 11:36:57;;;;;;;1.43;1.43;;;;;;;;;;6215868;23;20458;-65
2023/04/09 11:39:24;;;;;;;2.30;2.20;;;;;;;;;;6215604;23;20450;-65
2023/04/09 11:41:50;;;;;;;2.23;2.23;;;;;;;;;;6215503;23;20372;-65
2023/04/09 11:44:16;;;;;;;2.33;2.33;;;;;;;;;;6216278;23;20497;-65
2023/04/09 11:46:42;;;;;;;1.70;1.70;;;;;;;;;;6215591;23;20789;-66
2023/04/09 11:49:08;;;;;;;1.83;1.83;;;;;;;;;;6215624;23;20398;-65
2023/04/09 11:51:34;;;;;;;1.90;1.90;;;;;;;;;;6215521;23;20865;-65
2023/04/09 11:54:07;;;;;;;1.37;1.37;;;;;;;;;;6215886;23;20394;-65
2023/04/09 11:56:35;;;;;;;1.20;1.20;;;;;;;;;;6215829;23;20729;-65
2023/04/09 11:59:01;;;;;;;1.40;1.30;;;;;;;;;;6215751;23;20501;-65
2023/04/09 12:01:34;;;;;;;2.13;2.13;;;;;;;;;;6215430;23;20371;-65
2023/04/09 12:04:00;;;;;;;1.77;1.77;;;;;;;;;;6216462;23;20450;-66
2023/04/09 12:06:27;;;;;;;1.87;1.83;;;;;;;;;;6215727;23;20708;-65
2023/04/09 12:08:56;;;;;;;1.27;1.27;;;;;;;;;;6215905;23;20717;-65
2023/04/09 12:11:30;;;;;;;1.83;1.83;;;;;;;;;;6215635;23;20378;-65
2023/04/09 12:14:01;;;;;;;1.60;1.60;;;;;;;;;;6215751;23;20384;-65
2023/04/09 12:16:30;;;;;;;1.97;1.97;;;;;;;;;;6216144;23;20377;-65
2023/04/09 12:18:56;;;;;;;1.93;1.93;;;;;;;;;;6215744;23;20467;-65
2023/04/09 12:21:25;;;;;;;1.60;1.60;;;;;;;;;;6215277;23;20378;-65
2023/04/09 12:23:51;;;;;;;2.20;2.20;;;;;;;;;;6215460;23;20391;-65
2023/04/09 12:26:17;;;;;;;1.90;1.90;;;;;;;;;;6215614;23;20375;-65
2023/04/09 12:28:43;;;;;;;1.60;1.60;;;;;;;;;;6215370;23;20375;-65
2023/04/09 12:31:10;;;;;;;1.80;1.80;;;;;;;;;;6216178;23;20380;-65
2023/04/09 12:33:37;;;;;;;1.57;1.57;;;;;;;;;;6215244;23;20759;-66
2023/04/09 12:36:03;;;;;;;1.80;1.80;;;;;;;;;;6214713;23;20785;-65
2023/04/09 12:38:29;;;;;;;1.60;1.60;;;;;;;;;;6215568;23;20426;-65
2023/04/09 12:40:55;;;;;;;1.30;1.30;;;;;;;;;;6217462;23;20464;-65
2023/04/09 12:43:21;;;;;;;1.60;1.60;;;;;;;;;;6217245;23;20678;-65
2023/04/09 12:45:47;;;;;;;1.77;1.53;;;;;;;;;;6217092;23;20430;-65
2023/04/09 12:48:13;;;;;;;2.50;2.40;;;;;;;;;;6217448;23;20379;-66
2023/04/09 12:50:39;;;;;;;2.10;2.10;;;;;;;;;;6217005;23;20377;-65
2023/04/09 12:53:05;;;;;;;2.00;2.00;;;;;;;;;;6217728;23;20376;-65
2023/04/09 12:55:31;;;;;;;1.33;1.33;;;;;;;;;;6217404;23;20426;-66
2023/04/09 12:57:57;;;;;;;1.63;1.63;;;;;;;;;;6216948;23;20375;-65
2023/04/09 13:00:24;;;;;;;2.50;2.40;;;;;;;;;;6217280;23;20429;-66
2023/04/09 13:02:51;;;;;;;1.90;1.77;;;;;;;;;;6217332;23;20830;-65
2023/04/09 13:05:17;;;;;;;1.63;1.63;;;;;;;;;;6217376;23;20379;-65
2023/04/09 13:07:43;;;;;;;2.00;1.90;;;;;;;;;;6216875;23;20436;-65
2023/04/09 13:10:09;;;;;;;1.80;1.80;;;;;;;;;;6217146;23;20379;-67
2023/04/09 13:12:35;;;;;;;1.50;1.50;;;;;;;;;;6216923;23;20382;-66
2023/04/09 13:15:02;;;;;;;1.97;1.63;;;;;;;;;;6217299;23;20439;-65
2023/04/09 13:17:28;;;;;;;2.10;2.10;;;;;;;;;;6216862;23;20713;-65
2023/04/09 13:19:54;;;;;;;2.10;2.10;;;;;;;;;;6215160;23;20440;-65
2023/04/09 13:22:20;;;;;;;2.30;2.30;;;;;;;;;;6216764;23;20378;-65
2023/04/09 13:24:46;;;;;;;1.80;1.80;;;;;;;;;;6216948;23;20414;-65
2023/04/09 13:27:12;;;;;;;1.80;1.80;;;;;;;;;;6216647;23;20379;-65
2023/04/09 13:29:38;;;;;;;2.10;2.10;;;;;;;;;;6216752;23;20368;-66
2023/04/09 13:32:09;;;;;;;1.57;1.57;;;;;;;;;;6216628;23;20890;-65
2023/04/09 13:34:35;;;;;;;2.50;2.40;;;;;;;;;;6216770;23;20355;-65
2023/04/09 13:37:04;;;;;;;1.30;1.30;;;;;;;;;;6215267;23;20415;-65
2023/04/09 13:39:30;;;;;;;1.90;1.80;;;;;;;;;;6216322;23;20550;-66
2023/04/09 13:41:56;;;;;;;1.10;1.10;;;;;;;;;;6216847;23;20371;-65
2023/04/09 13:44:23;;;;;;;2.00;1.90;;;;;;;;;;6216558;23;20383;-65
2023/04/09 13:46:49;;;;;;;1.40;1.40;;;;;;;;;;6216520;23;20927;-66
2023/04/09 13:49:15;;;;;;;1.10;1.10;;;;;;;;;;6216966;23;20384;-65
2023/04/09 13:51:41;;;;;;;2.53;1.90;;;;;;;;;;6214990;23;20383;-66
2023/04/09 13:54:10;;;;;;;1.40;1.40;;;;;;;;;;6216770;23;20434;-65
2023/04/09 13:56:36;;;;;;;1.70;1.70;;;;;;;;;;6216368;23;20368;-65
2023/04/09 13:59:02;;;;;;;1.83;1.83;;;;;;;;;;6216903;23;20430;-65
2023/04/09 14:01:28;;;;;;;1.90;1.90;;;;;;;;;;6216343;23;20374;-65
2023/04/09 14:03:54;;;;;;;1.30;1.30;;;;;;;;;;6216306;23;20907;-65
2023/04/09 14:06:20;;;;;;;1.70;1.70;;;;;;;;;;6216266;23;20406;-66
2023/04/09 14:08:46;;;;;;;1.20;1.20;;;;;;;;;;6216278;23;20395;-65
2023/04/09 14:11:14;;;;;;;1.30;1.30;;;;;;;;;;6216174;23;20708;-66
2023/04/09 14:13:40;;;;;;;1.40;1.40;;;;;;;;;;6216217;23;20419;-65
2023/04/09 14:16:07;;;;;;;4.30;1.50;;;;;;;;;;6216336;23;20367;-66
2023/04/09 14:18:33;;;;;;;1.80;1.80;;;;;;;;;;6216187;23;20421;-65
2023/04/09 14:20:59;;;;;;;1.20;1.20;;;;;;;;;;6216357;23;20394;-65
2023/04/09 14:23:25;;;;;;;1.40;1.40;;;;;;;;;;6216493;23;20474;-65
2023/04/09 14:25:52;;;;;;;1.90;1.43;;;;;;;;;;6214688;23;20522;-65
2023/04/09 14:28:18;;;;;;;1.10;1.10;;;;;;;;;;6216497;23;20458;-65
2023/04/09 14:30:44;;;;;;;1.47;1.47;;;;;;;;;;6214530;23;20398;-65
2023/04/09 14:33:10;;;;;;;1.57;1.57;;;;;;;;;;6216219;23;20454;-66
2023/04/09 14:35:36;;;;;;;1.80;1.70;;;;;;;;;;6215786;23;20399;-65
2023/04/09 14:38:05;;;;;;;1.63;1.63;;;;;;;;;;6216226;23;20375;-63
2023/04/09 14:40:31;;;;;;;2.00;1.60;;;;;;;;;;6215675;23;20434;-63
2023/04/09 14:42:58;;;;;;;1.20;1.20;;;;;;;;;;6216116;23;20446;-64
2023/04/09 14:45:24;;;;;;;1.27;1.27;;;;;;;;;;6216313;23;20394;-63
2023/04/09 14:47:50;;;;;;;0.97;0.97;;;;;;;;;;6215909;23;20387;-64
2023/04/09 14:50:16;;;;;;;1.50;1.50;;;;;;;;;;6216280;23;20682;-63
2023/04/09 14:52:44;;;;;;;2.87;1.47;;;;;;;;;;6189626;23;20917;-63
2023/04/09 14:55:11;;;;;;;1.20;1.20;;;;;;;;;;6216189;23;20430;-64